LFBTLFBZ

Guest
Details From LFBT - Tarbes Ossun Lourdes
To LFBZ - Biarritz-Anglet-Bayonne
Flight Number -
Tags decoded
Created
Modified
Stats Distance 72 nm / 132 km
Max Altitude 0 ft / 0 m
Waypoints 3
Social Downloads 3
Likes 0
Share VATSIM

Download

Looking for another format? Having issues loading an existing format? Contact us
Advertisement - Login to hide

Notes

Requested: LFBT SEA LFBZ

Route

LFBT SEA LFBZ

ID Type Via Altitude Latitude Longitude Leg Dist Tot Dist Heading (true) Name
O LFBT APT - 0 ft / 0 m 43.17864˚ -0.00634˚ - 0 nm - Tarbes Ossun Lourdes
SEA FIX - 0 ft / 0 m 43.52417˚ -0.90972˚ 44 nm 44 nm 298° / 297° -
O LFBZ APT - 0 ft / 0 m 43.46843˚ -1.52332˚ 26 nm 71 nm 263° / 263° Biarritz-Anglet-Bayonne

Altitude Profile

Advertisement - Login to hide

LFBT

Details ICAO LFBT (LDE)
Name Tarbes Ossun Lourdes
Region France
Timezone Europe/Paris (UTC+1.0)
Stats Elevation 1,260 ft / 384 m (AMSL)
Location 43.178643° -0.006340°
Runways 1
Magnetic Variation 0.218° E

METAR

LFBT 160330Z AUTO 24007KT 9999 SCT027 SCT054 BKN070 04/02 Q1015 TEMPO 4500 -SHRA BKN004 BKN013TCU

Decode

TAF

TAF LFBT 152300Z 1600/1624 26012KT 9999 FEW008 SCT014 BKN035 TEMPO 1600/1620 4500 -SHRA BKN004 BKN013TCU

Decode

Departure Runways

ID Width Length Bearing (true) Bearing (mag) Surface Threshold Offset Overrun Length
02 148 ft / 45 m 9,847 ft / 3,001 m 20.26° 20.04° Asphalt 2,199 ft / 670 m 0 ft / 0 m
20 148 ft / 45 m 9,847 ft / 3,001 m 200.27° 200.05° Asphalt 0 ft / 0 m 0 ft / 0 m

LFBZ

Details ICAO LFBZ (BIQ)
Name Biarritz-Anglet-Bayonne
Region France
Timezone Europe/Paris (UTC+1.0)
Stats Elevation 245 ft / 75 m (AMSL)
Location 43.468427° -1.523322°
Runways 1
Magnetic Variation 0.225° W

METAR

LFBZ 160330Z AUTO VRB02KT 9999 SCT028/// BKN040/// BKN052/// ///TCU 07/05 Q1016 TEMPO 28018G35KT 3000 SHRA BKN013 OVC020CB

Decode

TAF

TAF LFBZ 152300Z 1600/1624 32010KT 9999 SCT025TCU BKN045 TEMPO 1600/1606 28018G35KT 3000 SHRA BKN013 OVC020CB PROB30 TEMPO 1600/1603 34025G45KT 1200 +TSRAGS BKN004 BKN017CB PROB30 TEMPO 1606/1624 04005KT 4500 -SHRA BKN016TCU

Decode

Destination Runways

ID Width Length Bearing (true) Bearing (mag) Surface Threshold Offset Overrun Length
09 148 ft / 45 m 7,388 ft / 2,252 m 89.12° 89.35° Asphalt 673 ft / 205 m 0 ft / 0 m
27 148 ft / 45 m 7,388 ft / 2,252 m 269.14° 269.37° Asphalt 0 ft / 0 m 0 ft / 0 m

Approach Navaids

Runway Type Ident Frequency Range Bearing (true) Bearing (mag) Slope Elevation
09 Localiser BZ 111.34 MHz 18 nm / 33 km 89.35° 89.58° - 243 ft / 74 m (AMSL)
09 Glidescope BZ 111.34 MHz 10 nm / 19 km 89.13° 89.36° 3.00° 243 ft / 74 m (AMSL)
27 Localiser BZ 111.35 MHz 18 nm / 33 km 269.04° 269.27° - 234 ft / 71 m (AMSL)
27 Glidescope BZ 111.35 MHz 10 nm / 19 km 269.13° 269.36° 3.00° 234 ft / 71 m (AMSL)
27 DME BZ 111.35 MHz 18 nm / 33 km - - - 223 ft / 68 m (AMSL)

Popular Alternatives